Time;durP1;ratioP1;P1;durP2;ratioP2;P2;SDS_P1;SDS_P2;PMS_P1;PMS_P2;Temp;Humidity;BMP_temperature;BMP_pressure;BME280_temperature;BME280_humidity;BME280_pressure;Samples;Min_cycle;Max_cycle;Signal;HPM_P1;HPM_P2
2022/09/19 00:00:47;;;;;;;7.13;3.03;;;10.80;99.90;;;;;;5052998;28;20217;-67
2022/09/19 00:03:13;;;;;;;6.70;2.90;;;10.70;99.90;;;;;;5052860;28;20217;-66
2022/09/19 00:05:42;;;;;;;9.10;2.83;;;10.70;99.90;;;;;;5052951;28;20220;-66
2022/09/19 00:08:10;;;;;;;5.30;2.67;;;10.70;99.90;;;;;;5051236;28;20626;-66
2022/09/19 00:10:40;;;;;;;4.77;2.90;;;10.60;99.90;;;;;;5051216;28;20214;-67
2022/09/19 00:13:08;;;;;;;5.83;2.90;;;10.60;99.90;;;;;;5065477;28;20324;-67
2022/09/19 00:15:36;;;;;;;5.17;2.67;;;10.50;99.90;;;;;;5063782;28;20212;-66
2022/09/19 00:18:04;;;;;;;9.70;3.10;;;10.60;99.90;;;;;;5040503;28;20245;-66
2022/09/19 00:20:33;;;;;;;10.03;3.07;;;10.50;99.90;;;;;;5051270;28;20668;-66
2022/09/19 00:25:44;;;;;;;3.77;2.33;;;10.60;99.90;;;;;;5052155;28;20200;-66
2022/09/19 00:28:11;;;;;;;7.17;2.93;;;10.60;99.90;;;;;;5046592;28;20749;-66
2022/09/19 00:30:39;;;;;;;4.43;2.10;;;10.50;99.90;;;;;;5052133;28;20213;-66
2022/09/19 00:33:07;;;;;;;5.90;2.60;;;10.50;99.90;;;;;;5050663;28;20206;-66
2022/09/19 00:35:34;;;;;;;2.90;2.03;;;10.50;99.90;;;;;;5051054;28;20210;-66
2022/09/19 00:38:02;;;;;;;10.77;3.40;;;10.50;99.90;;;;;;5050864;28;20218;-67
2022/09/19 00:40:29;;;;;;;2.40;2.07;;;10.40;99.90;;;;;;5052035;28;20289;-65
2022/09/19 00:42:55;;;;;;;9.27;2.63;;;10.40;99.90;;;;;;5050174;28;20216;-67
2022/09/19 00:45:23;;;;;;;5.80;2.30;;;10.40;99.90;;;;;;5045067;28;20213;-66
2022/09/19 00:47:53;;;;;;;3.43;2.43;;;10.30;99.90;;;;;;5050298;28;20305;-66
2022/09/19 00:50:26;;;;;;;3.97;2.33;;;10.30;99.90;;;;;;5062741;28;20236;-66
2022/09/19 00:52:59;;;;;;;5.03;2.27;;;10.30;99.90;;;;;;5052954;28;20202;-67
2022/09/19 00:55:26;;;;;;;7.70;2.50;;;10.20;99.90;;;;;;5040084;28;20203;-67
2022/09/19 00:58:00;;;;;;;5.67;2.40;;;10.20;99.90;;;;;;5049224;28;20233;-67
2022/09/19 01:00:27;;;;;;;4.17;2.17;;;10.20;99.90;;;;;;5050714;28;20209;-66
2022/09/19 01:02:55;;;;;;;7.17;2.63;;;10.20;99.90;;;;;;5048001;28;20198;-65
2022/09/19 01:05:29;;;;;;;3.57;2.30;;;10.10;99.90;;;;;;5050859;28;20201;-66
2022/09/19 01:08:09;;;;;;;4.20;2.87;;;10.20;99.90;;;;;;5049036;28;20697;-67
2022/09/19 01:10:50;;;;;;;4.50;2.53;;;10.10;99.90;;;;;;5042092;28;20207;-66
2022/09/19 01:13:24;;;;;;;6.07;2.37;;;10.00;99.90;;;;;;5050280;28;20202;-66
2022/09/19 01:15:56;;;;;;;4.20;2.13;;;10.00;99.90;;;;;;5062741;28;20677;-66
2022/09/19 01:18:28;;;;;;;7.57;3.03;;;10.00;99.90;;;;;;5043538;28;20225;-66
2022/09/19 01:24:37;;;;;;;5.33;2.50;;;10.00;99.90;;;;;;5050756;28;20283;-66
2022/09/19 01:27:28;;;;;;;3.57;2.03;;;10.00;99.90;;;;;;5049280;28;20213;-66
2022/09/19 01:30:01;;;;;;;4.67;2.57;;;9.90;99.90;;;;;;5043334;28;20654;-67
2022/09/19 01:32:33;;;;;;;5.33;2.23;;;9.80;99.90;;;;;;5049565;28;20214;-67
2022/09/19 01:35:04;;;;;;;4.57;2.77;;;9.80;99.90;;;;;;5052064;28;20639;-66
2022/09/19 01:37:36;;;;;;;7.67;2.77;;;9.80;99.90;;;;;;5049835;28;20233;-66
2022/09/19 01:40:06;;;;;;;6.17;3.03;;;9.80;99.90;;;;;;5045293;28;20210;-65
2022/09/19 01:42:33;;;;;;;5.70;2.77;;;9.80;99.90;;;;;;5048373;28;20205;-66
2022/09/19 01:45:01;;;;;;;7.33;3.10;;;9.70;99.90;;;;;;5043496;28;20217;-66
2022/09/19 01:47:36;;;;;;;5.00;2.77;;;9.70;99.90;;;;;;5047360;28;20212;-66
2022/09/19 01:50:10;;;;;;;5.73;2.80;;;9.70;99.90;;;;;;5061294;28;20303;-66
2022/09/19 01:52:53;;;;;;;6.80;2.43;;;9.60;99.90;;;;;;5060563;28;20562;-66
2022/09/19 01:55:27;;;;;;;4.90;2.53;;;9.60;99.90;;;;;;5071172;28;20205;-67
2022/09/19 01:58:05;;;;;;;4.87;2.63;;;9.60;99.90;;;;;;5053331;28;20249;-65
2022/09/19 02:00:37;;;;;;;6.17;3.00;;;9.60;99.90;;;;;;5050446;28;20532;-66
2022/09/19 02:03:16;;;;;;;8.80;2.97;;;9.50;99.90;;;;;;5050095;28;20225;-65
2022/09/19 02:05:51;;;;;;;5.87;2.77;;;9.50;99.90;;;;;;5049117;28;20744;-67
2022/09/19 02:08:28;;;;;;;7.37;2.67;;;9.40;99.90;;;;;;5049373;28;20201;-66
2022/09/19 02:11:00;;;;;;;10.97;2.77;;;9.40;99.90;;;;;;5050774;28;20216;-67
2022/09/19 02:13:30;;;;;;;6.07;3.03;;;9.30;99.90;;;;;;5047014;28;20255;-66
2022/09/19 02:16:06;;;;;;;4.80;2.63;;;9.30;99.90;;;;;;5057356;28;20209;-66
2022/09/19 02:18:39;;;;;;;6.23;3.00;;;9.20;99.90;;;;;;5050414;28;20220;-66
2022/09/19 02:21:11;;;;;;;4.37;2.53;;;9.20;99.90;;;;;;5060151;28;20667;-67
2022/09/19 02:23:43;;;;;;;7.43;2.80;;;9.20;99.90;;;;;;5050305;28;20225;-66
2022/09/19 02:26:10;;;;;;;6.37;3.00;;;9.10;99.90;;;;;;5049905;28;20614;-67
2022/09/19 02:28:41;;;;;;;8.47;3.47;;;9.10;99.90;;;;;;5045781;28;20286;-67
2022/09/19 02:31:11;;;;;;;4.53;3.13;;;9.10;99.90;;;;;;5049051;28;20214;-66
2022/09/19 02:33:42;;;;;;;7.50;3.03;;;9.00;99.90;;;;;;5049946;28;20263;-67
2022/09/19 02:36:16;;;;;;;15.10;3.33;;;8.90;99.90;;;;;;5043855;28;20242;-66
2022/09/19 02:38:50;;;;;;;5.97;3.30;;;8.90;99.90;;;;;;5055168;28;20230;-65
2022/09/19 02:41:22;;;;;;;6.80;4.23;;;8.90;99.90;;;;;;5051197;28;20677;-66
2022/09/19 02:43:56;;;;;;;6.00;3.00;;;8.80;99.90;;;;;;5038083;28;20652;-66
2022/09/19 02:46:32;;;;;;;6.17;3.27;;;8.80;99.90;;;;;;5049571;28;20201;-66
2022/09/19 02:49:06;;;;;;;5.10;3.27;;;8.80;99.90;;;;;;5050943;28;20216;-67
2022/09/19 02:51:38;;;;;;;9.70;3.83;;;8.80;99.90;;;;;;5062250;28;20194;-67
2022/09/19 02:54:11;;;;;;;3.93;3.10;;;8.80;99.90;;;;;;5036333;28;20202;-67
2022/09/19 02:56:41;;;;;;;4.47;2.87;;;8.80;99.90;;;;;;5058059;28;20199;-67
2022/09/19 02:59:11;;;;;;;4.40;2.57;;;8.70;99.90;;;;;;5044325;28;20209;-66
2022/09/19 03:01:43;;;;;;;5.93;3.27;;;8.80;99.90;;;;;;5063453;28;20650;-67
2022/09/19 03:04:14;;;;;;;5.13;3.37;;;8.70;99.90;;;;;;5046680;28;20210;-66
2022/09/19 03:06:48;;;;;;;6.87;3.20;;;8.70;99.90;;;;;;5049921;28;20706;-66
2022/09/19 03:09:20;;;;;;;5.23;3.90;;;8.70;99.90;;;;;;5049570;28;20209;-65
2022/09/19 03:11:54;;;;;;;6.07;3.30;;;8.70;99.90;;;;;;5056117;28;20630;-66
2022/09/19 03:14:21;;;;;;;5.30;3.30;;;8.70;99.90;;;;;;5047461;28;20220;-65
2022/09/19 03:16:51;;;;;;;10.00;3.80;;;8.70;99.90;;;;;;5041506;28;20580;-66
2022/09/19 03:19:18;;;;;;;6.00;3.67;;;8.70;99.90;;;;;;5053641;28;20579;-66
2022/09/19 03:21:45;;;;;;;5.33;3.70;;;8.70;99.90;;;;;;5052832;28;20625;-66
2022/09/19 03:24:12;;;;;;;7.23;3.53;;;8.70;99.90;;;;;;5050631;28;20210;-65
2022/09/19 03:26:39;;;;;;;4.90;3.60;;;8.70;99.90;;;;;;5055743;28;20210;-66
2022/09/19 03:29:08;;;;;;;5.23;3.87;;;8.70;99.90;;;;;;5052060;28;20221;-66
2022/09/19 03:31:35;;;;;;;9.67;3.77;;;8.70;99.90;;;;;;5053436;28;20205;-66
2022/09/19 03:34:04;;;;;;;9.80;4.30;;;8.80;99.90;;;;;;5052405;28;20690;-67
2022/09/19 03:36:33;;;;;;;5.20;4.13;;;8.80;99.90;;;;;;5042671;28;20231;-66
2022/09/19 03:39:01;;;;;;;6.77;4.23;;;8.80;99.90;;;;;;5052863;28;20236;-66
2022/09/19 03:41:29;;;;;;;10.50;4.90;;;8.80;99.90;;;;;;5052555;28;20209;-65
2022/09/19 03:44:01;;;;;;;5.63;4.40;;;8.80;99.90;;;;;;5051427;28;20621;-67
2022/09/19 03:46:30;;;;;;;8.07;4.83;;;8.80;99.90;;;;;;5052921;28;20213;-66
2022/09/19 03:48:58;;;;;;;6.60;4.23;;;8.80;99.90;;;;;;5053332;28;20249;-66
2022/09/19 03:51:26;;;;;;;6.53;4.60;;;8.80;99.90;;;;;;5061463;28;20206;-66
2022/09/19 03:53:52;;;;;;;8.27;4.70;;;8.80;99.90;;;;;;5045424;28;20203;-66
2022/09/19 03:56:19;;;;;;;7.40;5.43;;;8.80;99.90;;;;;;5065360;28;20208;-66
2022/09/19 03:58:46;;;;;;;9.33;5.37;;;8.80;99.90;;;;;;5054332;28;20225;-67
2022/09/19 04:01:14;;;;;;;8.63;5.73;;;8.80;99.90;;;;;;5052485;28;20202;-66
2022/09/19 04:03:41;;;;;;;10.47;5.30;;;8.80;99.90;;;;;;5049883;28;20206;-66
2022/09/19 04:06:09;;;;;;;8.03;4.90;;;8.80;99.90;;;;;;5052433;28;20202;-66
2022/09/19 04:08:37;;;;;;;5.87;4.87;;;8.70;99.90;;;;;;5053547;28;20205;-66
2022/09/19 04:11:04;;;;;;;7.17;4.90;;;8.70;99.90;;;;;;5053944;28;20271;-66
2022/09/19 04:13:33;;;;;;;7.20;5.50;;;8.70;99.90;;;;;;5053785;28;20209;-66
2022/09/19 04:16:00;;;;;;;10.77;6.10;;;8.70;99.90;;;;;;5050458;28;20293;-66
2022/09/19 04:18:27;;;;;;;7.93;5.60;;;8.70;99.90;;;;;;5052525;28;20224;-65
2022/09/19 04:20:55;;;;;;;9.23;5.30;;;8.70;99.90;;;;;;5052107;28;20206;-65
2022/09/19 04:23:25;;;;;;;7.80;5.27;;;8.70;99.90;;;;;;5049087;28;20234;-66
2022/09/19 04:25:55;;;;;;;11.63;5.63;;;8.70;99.90;;;;;;5042572;28;20210;-65
2022/09/19 04:28:23;;;;;;;7.73;4.80;;;8.70;99.90;;;;;;5051110;28;20213;-65
2022/09/19 04:30:50;;;;;;;11.63;5.70;;;8.70;99.90;;;;;;5052079;28;20260;-66
2022/09/19 04:33:20;;;;;;;5.63;5.13;;;8.70;99.90;;;;;;5051671;28;20221;-66
2022/09/19 04:35:47;;;;;;;8.73;5.47;;;8.70;99.90;;;;;;5051274;28;20198;-67
2022/09/19 04:38:18;;;;;;;9.03;5.53;;;8.70;99.90;;;;;;5051452;28;20663;-66
2022/09/19 04:40:46;;;;;;;8.07;6.07;;;8.80;99.90;;;;;;5054344;28;20205;-67
2022/09/19 04:43:16;;;;;;;6.93;6.13;;;8.70;99.90;;;;;;5072028;28;20255;-66
2022/09/19 04:45:48;;;;;;;7.53;5.77;;;8.70;99.90;;;;;;5050478;28;20669;-67
2022/09/19 04:48:15;;;;;;;8.77;6.13;;;8.70;99.90;;;;;;5064467;28;20224;-66
2022/09/19 04:50:42;;;;;;;10.00;6.97;;;8.80;99.90;;;;;;5057196;28;20209;-67
2022/09/19 04:53:12;;;;;;;8.63;5.73;;;8.80;99.90;;;;;;5052120;28;20214;-66
2022/09/19 04:55:39;;;;;;;12.27;6.47;;;8.80;99.90;;;;;;5045541;28;20300;-67
2022/09/19 04:58:07;;;;;;;7.90;6.67;;;8.80;99.90;;;;;;5050703;28;20233;-66
2022/09/19 05:00:38;;;;;;;7.73;5.93;;;8.80;99.90;;;;;;5047634;28;20301;-67
2022/09/19 05:03:07;;;;;;;10.47;6.70;;;8.80;99.90;;;;;;5052175;28;20543;-67
2022/09/19 05:05:36;;;;;;;9.67;6.50;;;8.80;99.90;;;;;;5050969;28;20213;-66
2022/09/19 05:08:04;;;;;;;9.03;7.40;;;8.80;99.90;;;;;;5052049;28;20198;-67
2022/09/19 05:10:32;;;;;;;11.40;7.00;;;8.80;99.90;;;;;;5049589;28;20217;-66
2022/09/19 05:12:59;;;;;;;12.20;7.03;;;8.80;99.90;;;;;;5051556;28;20213;-67
2022/09/19 05:15:25;;;;;;;8.07;7.07;;;8.80;99.90;;;;;;5045893;28;20681;-67
2022/09/19 05:17:55;;;;;;;10.37;7.23;;;8.80;99.90;;;;;;5043575;28;20222;-68
2022/09/19 05:20:25;;;;;;;9.37;7.00;;;8.80;99.90;;;;;;5042885;28;20225;-67
2022/09/19 05:22:54;;;;;;;8.83;7.60;;;8.80;99.90;;;;;;5046747;28;20240;-70
2022/09/19 05:25:21;;;;;;;10.10;7.37;;;8.80;99.90;;;;;;5046176;28;20625;-67
2022/09/19 05:27:48;;;;;;;11.23;7.70;;;8.80;99.90;;;;;;5051038;28;20564;-65
2022/09/19 05:30:14;;;;;;;9.13;7.53;;;8.80;99.90;;;;;;5050080;28;20218;-67
2022/09/19 05:32:44;;;;;;;11.47;7.23;;;8.70;99.90;;;;;;5050127;28;20202;-67
2022/09/19 05:35:14;;;;;;;10.70;7.60;;;8.70;99.90;;;;;;5049285;28;20293;-66
2022/09/19 05:37:41;;;;;;;14.23;8.63;;;8.70;99.90;;;;;;5050774;28;20229;-67
2022/09/19 05:40:10;;;;;;;13.10;9.73;;;8.70;99.90;;;;;;5053383;28;20568;-66
2022/09/19 05:42:41;;;;;;;10.13;8.23;;;8.70;99.90;;;;;;5043454;28;20201;-66
2022/09/19 05:45:09;;;;;;;13.63;8.87;;;8.70;99.90;;;;;;5059691;28;20202;-68
2022/09/19 05:47:38;;;;;;;11.53;7.60;;;8.70;99.90;;;;;;5042760;28;20650;-67
2022/09/19 05:50:07;;;;;;;10.43;8.10;;;8.80;99.90;;;;;;5045025;28;20209;-68
2022/09/19 05:55:21;;;;;;;11.47;8.23;;;8.80;99.90;;;;;;5045086;28;20291;-68
2022/09/19 05:57:51;;;;;;;10.67;8.53;;;8.80;99.90;;;;;;5050411;28;20212;-68
2022/09/19 06:00:18;;;;;;;11.65;8.65;;;8.80;99.90;;;;;;5046354;28;20479;-68
2022/09/19 06:02:45;;;;;;;11.60;8.67;;;8.90;99.90;;;;;;5050992;28;20206;-73
2022/09/19 06:05:12;;;;;;;12.33;8.60;;;8.90;99.90;;;;;;5048052;28;20208;-69
2022/09/19 06:07:40;;;;;;;14.87;9.20;;;8.90;99.90;;;;;;5044610;28;20210;-67
2022/09/19 06:10:08;;;;;;;12.13;8.90;;;8.90;99.90;;;;;;5043859;28;20240;-71
2022/09/19 06:12:35;;;;;;;12.67;9.47;;;9.00;99.90;;;;;;5052546;28;20271;-70
2022/09/19 06:15:01;;;;;;;10.40;9.30;;;9.10;99.90;;;;;;5052846;28;20650;-70
2022/09/19 06:17:28;;;;;;;15.33;9.77;;;9.10;99.90;;;;;;5053045;28;20207;-70
2022/09/19 06:19:55;;;;;;;13.07;8.80;;;9.10;99.90;;;;;;5053430;28;20217;-74
2022/09/19 06:22:22;;;;;;;12.03;9.47;;;9.20;99.90;;;;;;5050915;28;20227;-72
2022/09/19 06:24:50;;;;;;;12.90;9.30;;;9.20;99.90;;;;;;5054630;28;20213;-72
2022/09/19 06:27:17;;;;;;;12.27;8.93;;;9.30;99.90;;;;;;5053737;28;20562;-74
2022/09/19 06:29:44;;;;;;;10.27;8.77;;;9.30;99.90;;;;;;5049955;28;20205;-73
2022/09/19 06:32:11;;;;;;;9.90;8.90;;;9.30;99.90;;;;;;5038364;28;20233;-73
2022/09/19 06:34:38;;;;;;;13.10;9.50;;;9.30;99.90;;;;;;5040027;28;20214;-72
2022/09/19 06:37:05;;;;;;;16.37;9.70;;;9.20;99.90;;;;;;5036817;28;20246;-72
2022/09/19 06:39:32;;;;;;;10.43;9.10;;;9.20;99.90;;;;;;5035976;28;20253;-72
2022/09/19 06:42:00;;;;;;;12.63;9.90;;;9.30;99.90;;;;;;5037099;28;20217;-74
2022/09/19 06:44:27;;;;;;;11.83;10.57;;;9.30;99.90;;;;;;5039174;28;20217;-72
2022/09/19 06:46:54;;;;;;;11.47;10.27;;;9.20;99.90;;;;;;5041784;28;20205;-72
2022/09/19 06:49:21;;;;;;;11.00;9.80;;;9.30;99.90;;;;;;5050676;28;20252;-72
2022/09/19 06:51:47;;;;;;;11.40;10.07;;;9.30;99.90;;;;;;5065229;28;20300;-72
2022/09/19 06:54:15;;;;;;;13.73;11.00;;;9.40;99.90;;;;;;5049086;28;20221;-72
2022/09/19 06:56:41;;;;;;;13.93;11.27;;;9.40;99.90;;;;;;5054468;28;20202;-76
2022/09/19 06:59:10;;;;;;;15.07;11.20;;;9.40;99.90;;;;;;5058559;28;20279;-74
2022/09/19 07:01:37;;;;;;;14.80;10.77;;;9.50;99.90;;;;;;5050864;28;20247;-72
2022/09/19 07:04:04;;;;;;;14.00;11.80;;;9.50;99.90;;;;;;5056754;28;20296;-71
2022/09/19 07:06:34;;;;;;;15.97;10.90;;;9.50;99.90;;;;;;5059511;28;20271;-69
2022/09/19 07:09:02;;;;;;;14.53;11.40;;;9.50;99.90;;;;;;5046637;28;20209;-69
2022/09/19 07:11:28;;;;;;;14.00;11.53;;;9.50;99.90;;;;;;5058141;28;20221;-71
2022/09/19 07:13:55;;;;;;;16.77;11.83;;;9.50;99.90;;;;;;5057879;28;20209;-70
2022/09/19 07:16:23;;;;;;;16.83;11.77;;;9.50;99.90;;;;;;5044118;28;20218;-70
2022/09/19 07:18:51;;;;;;;12.00;10.70;;;9.50;99.90;;;;;;5053418;28;20214;-71
2022/09/19 07:21:18;;;;;;;14.07;11.20;;;9.50;99.90;;;;;;5054631;28;20209;-74
2022/09/19 07:23:47;;;;;;;14.43;11.40;;;9.50;99.90;;;;;;5051845;28;20236;-73
2022/09/19 07:26:14;;;;;;;17.90;11.47;;;9.40;99.90;;;;;;5049687;28;20217;-68
2022/09/19 07:28:41;;;;;;;14.20;12.00;;;9.40;99.90;;;;;;5048756;28;20471;-73
2022/09/19 07:31:09;;;;;;;17.88;13.32;;;9.40;99.90;;;;;;5041913;28;20463;-71
2022/09/19 07:33:37;;;;;;;12.37;11.07;;;9.50;99.90;;;;;;5048515;28;20323;-71
2022/09/19 07:36:07;;;;;;;16.83;12.33;;;9.50;99.90;;;;;;5049332;28;20229;-72
2022/09/19 07:38:34;;;;;;;14.33;11.30;;;9.40;99.90;;;;;;5045173;28;20217;-68
2022/09/19 07:41:01;;;;;;;14.50;11.93;;;9.50;99.90;;;;;;5055942;28;20264;-71
2022/09/19 07:43:28;;;;;;;14.47;11.67;;;9.50;99.90;;;;;;5044839;28;20209;-71
2022/09/19 07:45:55;;;;;;;15.43;12.17;;;9.50;99.90;;;;;;5037764;28;20212;-72
2022/09/19 07:48:22;;;;;;;16.43;12.07;;;9.50;99.90;;;;;;5043868;28;20687;-74
2022/09/19 07:50:50;;;;;;;15.50;12.00;;;9.60;99.90;;;;;;5051116;28;20205;-74
2022/09/19 07:53:21;;;;;;;15.33;11.17;;;9.60;99.90;;;;;;5051778;28;20204;-75
2022/09/19 07:55:51;;;;;;;16.37;10.87;;;9.60;99.90;;;;;;5052238;28;20193;-74
2022/09/19 07:58:20;;;;;;;19.60;11.60;;;9.60;99.90;;;;;;5051901;28;20646;-75
2022/09/19 08:00:48;;;;;;;12.40;10.80;;;9.60;99.90;;;;;;5048456;28;20202;-74
2022/09/19 08:03:17;;;;;;;11.30;9.10;;;9.60;99.90;;;;;;5046641;28;20214;-73
2022/09/19 08:05:45;;;;;;;11.13;8.73;;;9.60;99.90;;;;;;5051812;28;20217;-73
2022/09/19 08:08:15;;;;;;;10.60;9.30;;;9.60;99.90;;;;;;5051194;28;20212;-73
2022/09/19 08:10:42;;;;;;;12.93;9.43;;;9.60;99.90;;;;;;5053841;28;20205;-73
2022/09/19 08:13:11;;;;;;;10.37;9.20;;;9.60;99.90;;;;;;5051686;28;20269;-73
2022/09/19 08:15:39;;;;;;;11.17;8.83;;;9.60;99.90;;;;;;5044832;28;20198;-73
2022/09/19 08:18:11;;;;;;;10.97;8.97;;;9.60;99.90;;;;;;5050962;28;20673;-73
2022/09/19 08:20:39;;;;;;;11.60;9.23;;;9.70;99.90;;;;;;5051242;28;20767;-73
2022/09/19 08:23:09;;;;;;;11.53;9.03;;;9.70;99.90;;;;;;5045749;28;20248;-73
2022/09/19 08:25:39;;;;;;;13.77;9.20;;;9.70;99.90;;;;;;5049472;28;20209;-72
2022/09/19 08:28:06;;;;;;;11.03;9.00;;;9.70;99.90;;;;;;5058827;28;20635;-74
2022/09/19 08:30:35;;;;;;;12.50;10.40;;;9.70;99.90;;;;;;5051969;28;20267;-73
2022/09/19 08:33:02;;;;;;;11.83;9.07;;;9.80;99.90;;;;;;5053388;28;20205;-74
2022/09/19 08:35:30;;;;;;;11.90;9.20;;;9.80;99.90;;;;;;5049878;28;20221;-73
2022/09/19 08:37:59;;;;;;;10.97;9.07;;;9.80;99.90;;;;;;5060916;28;20248;-72
2022/09/19 08:40:28;;;;;;;9.63;8.47;;;9.80;99.90;;;;;;5042508;28;20225;-72
2022/09/19 08:43:11;;;;;;;8.30;7.50;;;9.90;99.90;;;;;;5059930;28;20287;-72
2022/09/19 08:45:55;;;;;;;10.40;8.43;;;9.90;99.90;;;;;;5054096;28;20570;-73
2022/09/19 08:48:29;;;;;;;10.87;8.50;;;9.90;99.90;;;;;;5065356;28;20193;-73
2022/09/19 08:51:02;;;;;;;8.57;7.67;;;9.90;99.90;;;;;;5051174;28;20219;-72
2022/09/19 08:53:32;;;;;;;8.63;7.67;;;9.90;99.90;;;;;;5044073;28;20202;-72
2022/09/19 08:56:01;;;;;;;13.10;8.77;;;9.80;99.90;;;;;;5041042;28;20198;-72
2022/09/19 08:58:32;;;;;;;9.80;8.53;;;9.80;99.90;;;;;;5043056;28;20565;-71
2022/09/19 09:01:01;;;;;;;9.33;8.33;;;9.50;99.90;;;;;;5043061;28;20210;-71
2022/09/19 09:03:38;;;;;;;10.10;8.30;;;9.80;99.90;;;;;;5062809;28;20625;-73
2022/09/19 09:06:18;;;;;;;10.00;8.17;;;9.80;99.90;;;;;;5054343;28;20268;-72
2022/09/19 09:08:55;;;;;;;10.33;8.13;;;9.80;99.90;;;;;;5039321;28;20264;-73
2022/09/19 09:11:32;;;;;;;8.73;7.83;;;9.80;99.90;;;;;;5048859;28;20193;-72
2022/09/19 09:14:14;;;;;;;8.60;7.70;;;9.80;99.90;;;;;;5052765;28;20258;-72
2022/09/19 09:16:53;;;;;;;9.37;7.97;;;9.80;99.90;;;;;;5037149;28;20253;-71
2022/09/19 09:19:48;;;;;;;10.00;7.23;;;9.80;99.90;;;;;;5044555;28;20217;-71
2022/09/19 09:22:21;;;;;;;7.80;7.00;;;9.80;99.90;;;;;;5051695;28;20232;-72
2022/09/19 09:24:54;;;;;;;9.33;7.57;;;9.90;99.90;;;;;;5055532;28;20197;-73
2022/09/19 09:27:27;;;;;;;8.13;7.33;;;10.00;99.90;;;;;;5060936;28;20208;-73
2022/09/19 09:30:02;;;;;;;8.40;6.60;;;10.00;99.90;;;;;;5050090;28;20252;-76
2022/09/19 09:32:33;;;;;;;7.90;6.50;;;10.00;99.90;;;;;;5048568;28;20290;-73
2022/09/19 09:35:06;;;;;;;8.80;6.70;;;10.10;99.90;;;;;;5043833;28;20201;-74
2022/09/19 09:37:41;;;;;;;8.93;6.37;;;10.10;99.90;;;;;;5055761;28;20720;-73
2022/09/19 09:41:44;;;;;;;6.77;6.07;;;10.20;99.90;;;;;;5054834;28;20226;-78
2022/09/19 09:43:06;;;;;;;9.23;6.20;;;10.30;99.90;;;;;;5046134;28;20201;-74
2022/09/19 09:45:42;;;;;;;8.10;6.50;;;10.30;99.90;;;;;;5059976;28;20212;-74
2022/09/19 09:48:15;;;;;;;7.00;6.00;;;10.40;99.90;;;;;;5058685;28;20211;-75
2022/09/19 09:51:05;;;;;;;8.40;6.13;;;10.40;99.90;;;;;;5067992;28;20201;-73
2022/09/19 09:53:49;;;;;;;6.17;5.53;;;10.60;99.90;;;;;;5042811;28;20213;-74
2022/09/19 09:56:21;;;;;;;6.17;5.30;;;10.60;99.90;;;;;;5045021;28;20201;-74
2022/09/19 09:59:02;;;;;;;5.80;5.20;;;10.60;99.90;;;;;;5047588;28;20229;-72
2022/09/19 10:04:33;;;;;;;6.43;5.70;;;10.60;99.90;;;;;;5046774;28;20209;-72
2022/09/19 10:07:11;;;;;;;6.40;5.37;;;10.60;99.90;;;;;;5044004;28;20211;-73
2022/09/19 10:09:44;;;;;;;5.93;4.73;;;10.60;99.90;;;;;;5049282;28;20218;-72
2022/09/19 10:12:21;;;;;;;5.63;5.10;;;10.60;99.90;;;;;;5053862;28;20218;-72
2022/09/19 10:14:48;;;;;;;5.80;4.77;;;10.60;99.90;;;;;;5048780;28;20206;-73
2022/09/19 10:17:19;;;;;;;5.80;4.47;;;10.60;99.90;;;;;;5045009;28;20914;-73
2022/09/19 10:19:47;;;;;;;5.33;4.57;;;10.60;99.90;;;;;;5056091;28;20256;-73
2022/09/19 10:22:15;;;;;;;6.33;4.73;;;10.60;99.90;;;;;;5058021;28;20234;-73
2022/09/19 10:24:52;;;;;;;5.13;4.63;;;10.50;99.90;;;;;;5063636;28;20209;-73
2022/09/19 10:27:23;;;;;;;5.87;5.27;;;10.60;99.90;;;;;;5044292;28;20323;-74
2022/09/19 10:29:53;;;;;;;5.37;4.63;;;10.60;99.90;;;;;;5047033;28;20206;-73
2022/09/19 10:32:24;;;;;;;6.20;5.00;;;10.60;99.90;;;;;;5050547;28;20202;-74
2022/09/19 10:34:52;;;;;;;6.47;5.10;;;10.60;99.90;;;;;;5052335;28;20197;-73
2022/09/19 10:37:21;;;;;;;6.13;5.17;;;10.70;99.90;;;;;;5052659;28;20232;-74
2022/09/19 10:39:49;;;;;;;5.90;4.93;;;10.70;99.90;;;;;;5050704;28;20633;-74
2022/09/19 10:42:33;;;;;;;6.27;5.60;;;10.70;99.90;;;;;;5046941;28;20573;-72
2022/09/19 10:45:03;;;;;;;6.60;5.27;;;10.70;99.90;;;;;;5045836;28;20279;-71
2022/09/19 10:47:37;;;;;;;5.77;4.83;;;10.70;99.90;;;;;;5058290;28;20194;-71
2022/09/19 10:50:05;;;;;;;4.87;4.37;;;10.80;99.90;;;;;;5037531;28;21219;-72
2022/09/19 10:52:33;;;;;;;5.53;4.90;;;10.80;99.90;;;;;;5051823;28;20292;-71
2022/09/19 10:55:02;;;;;;;5.40;4.90;;;10.80;99.90;;;;;;5051571;28;20201;-71
2022/09/19 10:57:40;;;;;;;7.53;4.87;;;10.80;99.90;;;;;;5047635;28;20213;-72
2022/09/19 11:00:22;;;;;;;5.67;4.97;;;10.80;99.90;;;;;;5056040;28;20213;-73
2022/09/19 11:03:15;;;;;;;6.80;4.93;;;10.80;99.90;;;;;;5059431;28;20205;-73
2022/09/19 11:05:42;;;;;;;5.23;4.70;;;10.80;99.90;;;;;;5041386;28;20212;-73
2022/09/19 11:08:24;;;;;;;8.07;5.00;;;10.90;99.90;;;;;;5052955;28;20217;-73
2022/09/19 11:10:51;;;;;;;5.37;4.87;;;10.90;99.90;;;;;;5052211;28;20200;-74
2022/09/19 11:13:22;;;;;;;10.70;4.93;;;10.90;99.90;;;;;;5058735;28;20217;-74
2022/09/19 11:16:17;;;;;;;7.37;5.37;;;10.90;99.90;;;;;;5048754;28;20206;-74
2022/09/19 11:19:00;;;;;;;7.27;4.90;;;10.90;99.90;;;;;;5049546;28;20247;-74
2022/09/19 11:21:41;;;;;;;6.40;4.83;;;10.90;99.90;;;;;;5045408;28;20226;-75
2022/09/19 11:24:53;;;;;;;5.30;4.80;;;11.00;99.90;;;;;;5036826;28;20201;-75
2022/09/19 11:27:35;;;;;;;7.67;5.20;;;11.00;99.90;;;;;;5050980;28;20220;-75
2022/09/19 11:30:11;;;;;;;5.90;4.50;;;11.00;99.90;;;;;;5039760;28;20201;-73
2022/09/19 11:33:16;;;;;;;5.90;4.57;;;11.10;99.90;;;;;;5048317;28;20263;-72
2022/09/19 11:35:49;;;;;;;6.40;4.30;;;11.10;99.90;;;;;;4980230;28;20225;-73
2022/09/19 11:38:27;;;;;;;7.77;4.53;;;11.10;99.90;;;;;;5039165;28;20469;-73
2022/09/19 11:41:06;;;;;;;6.83;4.20;;;11.10;99.90;;;;;;5048945;28;20217;-74
2022/09/19 11:43:46;;;;;;;5.30;4.10;;;11.20;99.90;;;;;;5042389;28;20213;-70
2022/09/19 11:46:21;;;;;;;6.50;4.50;;;11.20;99.90;;;;;;5043598;28;20235;-76
2022/09/19 11:49:13;;;;;;;5.83;3.73;;;11.30;99.90;;;;;;5045630;28;20206;-73
2022/09/19 11:51:50;;;;;;;6.70;4.20;;;11.20;99.90;;;;;;5024541;28;20218;-74
2022/09/19 11:54:34;;;;;;;3.73;3.30;;;11.20;99.90;;;;;;5052007;28;20206;-74
2022/09/19 11:57:08;;;;;;;10.03;4.83;;;11.20;99.90;;;;;;5042794;28;20210;-73
2022/09/19 12:00:13;;;;;;;4.03;3.63;;;11.20;99.90;;;;;;5051403;28;20281;-75
2022/09/19 12:03:10;;;;;;;6.40;4.20;;;11.30;99.90;;;;;;5059123;28;20297;-74
2022/09/19 12:05:53;;;;;;;5.23;3.77;;;11.30;99.90;;;;;;5027715;28;20301;-75
2022/09/19 12:08:33;;;;;;;3.97;3.57;;;11.40;99.90;;;;;;5042283;28;20413;-74
2022/09/19 12:11:08;;;;;;;4.17;3.27;;;11.40;99.90;;;;;;5054856;28;20211;-73
2022/09/19 12:13:42;;;;;;;5.40;3.30;;;11.40;99.90;;;;;;5054279;28;20277;-74
2022/09/19 12:16:15;;;;;;;6.97;3.90;;;11.40;99.90;;;;;;5053923;28;20198;-74
2022/09/19 12:18:45;;;;;;;6.13;3.73;;;11.40;99.90;;;;;;5046867;28;20208;-73
2022/09/19 12:21:15;;;;;;;3.67;3.17;;;11.40;99.90;;;;;;5054743;28;20297;-74
2022/09/19 12:26:33;;;;;;;3.93;3.40;;;11.50;99.90;;;;;;5047018;28;20716;-75
2022/09/19 12:29:10;;;;;;;4.20;3.23;;;11.50;99.90;;;;;;5054517;28;20210;-75
2022/09/19 12:31:41;;;;;;;4.13;3.40;;;11.50;99.90;;;;;;5046231;28;20292;-76
2022/09/19 12:34:23;;;;;;;4.27;3.33;;;11.60;99.90;;;;;;5053927;28;20198;-74
2022/09/19 12:36:55;;;;;;;4.67;3.33;;;11.50;99.90;;;;;;5051091;28;20706;-74
2022/09/19 12:39:32;;;;;;;3.40;3.10;;;11.50;99.90;;;;;;5048556;28;20211;-74
2022/09/19 12:42:05;;;;;;;3.53;3.03;;;11.50;99.90;;;;;;5052787;28;20213;-73
2022/09/19 12:44:40;;;;;;;4.17;3.23;;;11.60;99.90;;;;;;5039723;28;20216;-74
2022/09/19 12:47:34;;;;;;;4.77;3.77;;;11.60;99.90;;;;;;5047776;28;20585;-74
2022/09/19 12:50:09;;;;;;;5.47;3.50;;;11.50;99.90;;;;;;5045182;28;20214;-75
2022/09/19 12:52:41;;;;;;;4.60;3.57;;;11.50;99.90;;;;;;5047247;28;20205;-77
2022/09/19 12:55:18;;;;;;;4.57;3.70;;;11.50;99.90;;;;;;5049863;28;20218;-75
2022/09/19 12:57:50;;;;;;;4.17;3.77;;;11.40;99.90;;;;;;5052973;28;20670;-75
2022/09/19 13:00:18;;;;;;;3.23;2.90;;;11.40;99.90;;;;;;5048906;28;20264;-74
2022/09/19 13:02:48;;;;;;;4.00;3.67;;;11.30;99.90;;;;;;5052755;28;20681;-74
2022/09/19 13:05:22;;;;;;;3.40;3.07;;;11.30;99.90;;;;;;5052994;28;20232;-74
2022/09/19 13:07:52;;;;;;;5.53;2.73;;;11.30;99.90;;;;;;5053290;28;20256;-73
2022/09/19 13:10:26;;;;;;;6.93;3.10;;;11.30;99.90;;;;;;5046139;28;20206;-75
2022/09/19 13:12:59;;;;;;;3.07;2.33;;;11.30;99.90;;;;;;5050374;28;20226;-75
2022/09/19 13:15:30;;;;;;;3.73;2.63;;;11.30;99.90;;;;;;5064845;28;20301;-75
2022/09/19 13:23:36;;;;;;;4.03;2.77;;;11.30;99.90;;;;;;5042586;28;20332;-75
2022/09/19 13:26:27;;;;;;;4.23;2.87;;;11.30;99.90;;;;;;5045063;28;20659;-74
2022/09/19 13:28:55;;;;;;;4.87;3.17;;;11.20;99.90;;;;;;5047793;28;20205;-73
2022/09/19 13:31:25;;;;;;;2.60;2.40;;;11.20;99.90;;;;;;5062423;28;20722;-74